createdAt,value
2018-11-12T00:00:52.207Z,18.8
2018-11-12T00:01:56.118Z,18.8
2018-11-12T00:02:57.278Z,18.8
2018-11-12T00:03:58.457Z,18.8
2018-11-12T00:05:02.538Z,18.8
2018-11-12T00:06:03.712Z,18.8
2018-11-12T00:07:04.855Z,18.8
2018-11-12T00:08:08.558Z,18.8
2018-11-12T00:09:12.145Z,18.8
2018-11-12T00:10:13.278Z,18.8
2018-11-12T00:11:14.462Z,18.8
2018-11-12T00:12:15.629Z,18.8
2018-11-12T00:13:16.802Z,18.8
2018-11-12T00:14:17.939Z,18.8
2018-11-12T00:15:21.606Z,18.8
2018-11-12T00:16:23.034Z,18.8
2018-11-12T00:17:24.197Z,18.7
2018-11-12T00:18:25.381Z,18.7
2018-11-12T00:19:27.908Z,18.7
2018-11-12T00:20:29.051Z,18.7
2018-11-12T00:21:30.231Z,18.7
2018-11-12T00:22:31.616Z,18.7
2018-11-12T00:23:32.754Z,18.7
2018-11-12T00:24:34.251Z,18.7
2018-11-12T00:25:35.417Z,18.7
2018-11-12T00:26:39.598Z,18.7
2018-11-12T00:27:43.249Z,18.7
2018-11-12T00:28:47.406Z,18.7
2018-11-12T00:29:48.786Z,18.7
2018-11-12T00:30:52.528Z,18.7
2018-11-12T00:31:53.729Z,18.7
2018-11-12T00:32:54.884Z,18.7
2018-11-12T00:33:56.058Z,18.7
2018-11-12T00:34:57.202Z,18.7
2018-11-12T00:35:58.375Z,18.6
2018-11-12T00:36:59.597Z,18.6
2018-11-12T00:38:03.177Z,18.6
2018-11-12T00:39:04.367Z,18.6
2018-11-12T00:40:08.250Z,18.6
2018-11-12T00:41:09.703Z,18.6
2018-11-12T00:42:10.886Z,18.6
2018-11-12T00:43:12.525Z,18.5
2018-11-12T00:44:18.687Z,18.5
2018-11-12T00:45:19.866Z,18.5
2018-11-12T00:46:21.019Z,18.5
2018-11-12T00:47:22.263Z,18.4
2018-11-12T00:48:26.043Z,18.5
2018-11-12T00:49:29.640Z,18.5
2018-11-12T00:50:33.291Z,18.5
2018-11-12T00:51:34.426Z,18.5
2018-11-12T00:52:35.612Z,18.5
2018-11-12T00:53:36.802Z,18.5
2018-11-12T00:54:37.951Z,18.5
2018-11-12T00:55:39.124Z,18.5
2018-11-12T00:56:40.277Z,18.5
2018-11-12T00:57:41.466Z,18.5
2018-11-12T00:58:44.294Z,18.5
2018-11-12T00:59:45.423Z,18.5
2018-11-12T01:00:46.561Z,18.5
2018-11-12T01:01:47.710Z,18.4
2018-11-12T01:02:48.885Z,18.4
2018-11-12T01:03:50.464Z,18.4
2018-11-12T01:04:54.397Z,18.4
2018-11-12T01:05:55.591Z,18.4
2018-11-12T01:06:56.731Z,18.4
2018-11-12T01:07:57.933Z,18.4
2018-11-12T01:08:59.122Z,18.4
2018-11-12T01:10:01.911Z,18.4
2018-11-12T01:11:03.064Z,18.4
2018-11-12T01:12:04.230Z,18.4
2018-11-12T01:13:08.422Z,18.4
2018-11-12T01:14:09.582Z,18.4
2018-11-12T01:15:10.739Z,18.4
2018-11-12T01:16:12.968Z,18.4
2018-11-12T01:17:14.063Z,18.4
2018-11-12T01:18:15.565Z,18.4
2018-11-12T01:19:16.704Z,18.3
2018-11-12T01:20:17.863Z,18.4
2018-11-12T01:21:19.017Z,18.4
2018-11-12T01:22:20.182Z,18.4
2018-11-12T01:23:24.252Z,18.4
2018-11-12T01:24:25.372Z,18.4
2018-11-12T01:25:26.518Z,18.3
2018-11-12T01:26:27.647Z,18.3
2018-11-12T01:27:28.806Z,18.3
2018-11-12T01:28:29.992Z,18.3
2018-11-12T01:29:31.160Z,18.3
2018-11-12T01:30:32.334Z,18.3
2018-11-12T01:31:33.508Z,18.2
2018-11-12T01:32:34.638Z,18.3
2018-11-12T01:33:35.839Z,18.3
2018-11-12T01:34:36.959Z,18.3
2018-11-12T01:35:38.109Z,18.3
2018-11-12T01:36:39.306Z,18.3
2018-11-12T01:37:40.440Z,18.3
2018-11-12T01:38:41.605Z,18.3
2018-11-12T01:39:42.749Z,18.3
2018-11-12T01:40:43.901Z,18.3
2018-11-12T01:41:45.086Z,18.3
2018-11-12T01:42:46.211Z,18.2
2018-11-12T01:43:47.654Z,18.2
2018-11-12T01:44:48.817Z,18.2
2018-11-12T01:45:49.968Z,18.2
2018-11-12T01:46:51.110Z,18.2
2018-11-12T01:47:52.253Z,18.1
2018-11-12T01:48:53.445Z,18.2
2018-11-12T01:49:54.621Z,18.2
2018-11-12T01:50:55.774Z,18.2
2018-11-12T01:51:56.889Z,18.2
2018-11-12T01:52:58.367Z,18.1
2018-11-12T01:53:59.736Z,18.2
2018-11-12T01:55:00.878Z,18.2
2018-11-12T01:56:03.667Z,18.2
2018-11-12T01:57:04.809Z,18.2
2018-11-12T01:58:05.940Z,18.2
2018-11-12T01:59:07.121Z,18.1
2018-11-12T02:00:08.269Z,18.1
2018-11-12T02:01:09.435Z,18.1
2018-11-12T02:02:18.407Z,18.1
2018-11-12T02:03:19.597Z,18
2018-11-12T02:04:20.788Z,18.1
2018-11-12T02:05:21.914Z,18.1
2018-11-12T02:06:23.061Z,18.1
2018-11-12T02:07:24.205Z,18.1
2018-11-12T02:08:25.346Z,18.1
2018-11-12T02:09:26.519Z,18.1
2018-11-12T02:10:27.657Z,18
2018-11-12T02:11:28.834Z,18.1
2018-11-12T02:12:30.063Z,18
2018-11-12T02:13:31.413Z,18
2018-11-12T02:14:32.646Z,18
2018-11-12T02:15:33.735Z,18
2018-11-12T02:16:34.899Z,18
2018-11-12T02:17:36.047Z,18
2018-11-12T02:18:37.496Z,18
2018-11-12T02:19:38.854Z,18
2018-11-12T02:20:41.647Z,18
2018-11-12T02:21:44.835Z,18
2018-11-12T02:22:46.007Z,18
2018-11-12T02:23:47.159Z,18
2018-11-12T02:24:48.368Z,18
2018-11-12T02:25:49.546Z,18
2018-11-12T02:26:50.682Z,17.9
2018-11-12T02:27:51.816Z,17.9
2018-11-12T02:28:52.939Z,17.8
2018-11-12T02:29:56.560Z,18
2018-11-12T02:30:57.731Z,17.9
2018-11-12T02:31:59.018Z,17.9
2018-11-12T02:33:00.199Z,17.9
2018-11-12T02:34:01.371Z,17.9
2018-11-12T02:35:02.568Z,17.9
2018-11-12T02:36:03.722Z,17.9
2018-11-12T02:37:05.452Z,17.9
2018-11-12T02:38:06.583Z,17.9
2018-11-12T02:39:07.719Z,17.9
2018-11-12T02:40:10.274Z,17.9
2018-11-12T02:41:13.455Z,17.9
2018-11-12T02:42:14.599Z,17.9
2018-11-12T02:43:15.734Z,17.9
2018-11-12T02:44:16.874Z,17.9
2018-11-12T02:45:18.035Z,17.9
2018-11-12T02:46:19.194Z,17.9
2018-11-12T02:47:20.309Z,17.9
2018-11-12T02:48:21.506Z,17.9
2018-11-12T02:49:22.639Z,17.9
2018-11-12T02:50:24.076Z,17.9
2018-11-12T02:51:25.205Z,17.9
2018-11-12T02:52:26.418Z,17.9
2018-11-12T02:53:27.570Z,17.9
2018-11-12T02:54:28.701Z,17.9
2018-11-12T02:55:29.901Z,17.9
2018-11-12T02:56:31.031Z,17.9
2018-11-12T02:57:32.244Z,17.9
2018-11-12T02:58:33.319Z,17.7
2018-11-12T02:59:35.406Z,17.8
2018-11-12T03:00:36.600Z,17.8
2018-11-12T03:01:38.019Z,17.8
2018-11-12T03:02:39.503Z,17.9
2018-11-12T03:03:40.731Z,17.9
2018-11-12T03:04:41.896Z,17.9
2018-11-12T03:05:43.100Z,17.9
2018-11-12T03:06:44.289Z,17.9
2018-11-12T03:07:45.592Z,17.9
2018-11-12T03:08:46.625Z,17.8
2018-11-12T03:09:47.786Z,17.9
2018-11-12T03:10:48.969Z,17.8
2018-11-12T03:11:50.151Z,17.8
2018-11-12T03:12:53.765Z,17.9
2018-11-12T03:13:55.154Z,17.9
2018-11-12T03:14:56.318Z,17.8
2018-11-12T03:15:57.517Z,17.8
2018-11-12T03:16:58.670Z,17.9
2018-11-12T03:17:59.799Z,17.9
2018-11-12T03:19:00.937Z,17.9
2018-11-12T03:20:02.067Z,17.9
2018-11-12T03:21:03.317Z,17.9
2018-11-12T03:22:06.490Z,17.9
2018-11-12T03:23:07.660Z,17.9
2018-11-12T03:24:11.907Z,17.9
2018-11-12T03:25:13.052Z,17.9
2018-11-12T03:26:14.254Z,17.8
2018-11-12T03:27:15.373Z,17.9
2018-11-12T03:28:16.539Z,17.9
2018-11-12T03:29:18.026Z,17.9
2018-11-12T03:30:19.210Z,17.9
2018-11-12T03:31:20.414Z,17.9
2018-11-12T03:32:24.689Z,17.8
2018-11-12T03:33:25.855Z,17.8
2018-11-12T03:34:26.994Z,17.8
2018-11-12T03:35:28.155Z,17.8
2018-11-12T03:36:29.398Z,17.9
2018-11-12T03:37:30.542Z,17.9
2018-11-12T03:38:31.705Z,17.9
2018-11-12T03:39:32.977Z,17.8
2018-11-12T03:40:34.293Z,17.8
2018-11-12T03:41:35.582Z,17.9
2018-11-12T03:42:36.735Z,17.9
2018-11-12T03:43:37.878Z,17.9
2018-11-12T03:44:39.292Z,17.8
2018-11-12T03:45:40.427Z,17.8
2018-11-12T03:46:41.931Z,17.9
2018-11-12T03:47:43.121Z,17.8
2018-11-12T03:48:44.335Z,17.8
2018-11-12T03:49:45.469Z,17.8
2018-11-12T03:50:46.618Z,17.8
2018-11-12T03:51:47.962Z,17.8
2018-11-12T03:52:49.107Z,17.8
2018-11-12T03:53:50.359Z,17.8
2018-11-12T03:54:51.523Z,17.8
2018-11-12T03:55:52.756Z,17.8
2018-11-12T03:56:53.994Z,17.8
2018-11-12T03:57:55.296Z,17.8
2018-11-12T03:58:56.529Z,17.8
2018-11-12T03:59:57.798Z,17.8
2018-11-12T04:00:58.902Z,17.8
2018-11-12T04:02:00.132Z,17.8
2018-11-12T04:03:01.288Z,17.8
2018-11-12T04:04:02.463Z,17.8
2018-11-12T04:05:03.614Z,17.8
2018-11-12T04:06:04.761Z,17.8
2018-11-12T04:07:05.962Z,17.8
2018-11-12T04:08:07.110Z,17.8
2018-11-12T04:09:08.262Z,17.8
2018-11-12T04:10:09.482Z,17.7
2018-11-12T04:11:10.618Z,17.7
2018-11-12T04:12:11.787Z,17.7
2018-11-12T04:13:12.968Z,17.7
2018-11-12T04:14:14.123Z,17.7
2018-11-12T04:15:15.265Z,17.7
2018-11-12T04:16:16.410Z,17.6
2018-11-12T04:17:17.667Z,17.7
2018-11-12T04:18:19.000Z,17.7
2018-11-12T04:19:21.172Z,17.7
2018-11-12T04:20:22.303Z,17.7
2018-11-12T04:21:23.498Z,17.7
2018-11-12T04:22:24.832Z,17.6
2018-11-12T04:23:26.019Z,17.7
2018-11-12T04:24:27.174Z,17.7
2018-11-12T04:25:28.348Z,17.7
2018-11-12T04:26:29.517Z,17.7
2018-11-12T04:27:30.740Z,17.7
2018-11-12T04:28:31.878Z,17.7
2018-11-12T04:29:33.001Z,17.5
2018-11-12T04:30:34.152Z,17.7
2018-11-12T04:31:35.335Z,17.7
2018-11-12T04:32:36.587Z,17.7
2018-11-12T04:33:37.822Z,17.7
2018-11-12T04:34:41.534Z,17.6
2018-11-12T04:35:45.216Z,17.7
2018-11-12T04:36:46.339Z,17.7
2018-11-12T04:37:47.599Z,17.7
2018-11-12T04:38:50.371Z,17.7
2018-11-12T04:39:51.546Z,17.7
2018-11-12T04:40:52.684Z,17.7
2018-11-12T04:41:53.862Z,17.7
2018-11-12T04:42:55.048Z,17.7
2018-11-12T04:43:56.223Z,17.7
2018-11-12T04:44:57.383Z,17.7
2018-11-12T04:45:58.626Z,17.7
2018-11-12T04:46:59.962Z,17.6
2018-11-12T04:48:01.820Z,17.7
2018-11-12T04:49:03.461Z,17.7
2018-11-12T04:50:04.589Z,17.7
2018-11-12T04:51:06.031Z,17.6
2018-11-12T04:52:09.648Z,17.6
2018-11-12T04:53:13.326Z,17.6
2018-11-12T04:54:14.488Z,17.7
2018-11-12T04:55:15.673Z,17.7
2018-11-12T04:56:16.788Z,17.6
2018-11-12T04:57:17.939Z,17.6
2018-11-12T04:58:19.119Z,17.6
2018-11-12T04:59:20.267Z,17.6
2018-11-12T05:00:21.419Z,17.6
2018-11-12T05:01:22.579Z,17.6
2018-11-12T05:02:23.719Z,17.6
2018-11-12T05:03:24.912Z,17.6
2018-11-12T05:04:26.031Z,17.6
2018-11-12T05:05:27.171Z,17.6
2018-11-12T05:06:28.306Z,17.6
2018-11-12T05:07:29.476Z,17.6
2018-11-12T05:08:30.691Z,17.6
2018-11-12T05:09:34.025Z,17.6
2018-11-12T05:10:35.231Z,17.6
2018-11-12T05:11:36.403Z,17.5
2018-11-12T05:12:37.560Z,17.6
2018-11-12T05:13:38.749Z,17.5
2018-11-12T05:14:39.907Z,17.6
2018-11-12T05:15:41.065Z,17.6
2018-11-12T05:16:42.304Z,17.5
2018-11-12T05:17:43.371Z,17.5
2018-11-12T05:18:44.646Z,17.5
2018-11-12T05:19:47.944Z,17.5
2018-11-12T05:20:49.078Z,17.5
2018-11-12T05:21:50.257Z,17.5
2018-11-12T05:22:51.379Z,17.5
2018-11-12T05:23:52.572Z,17.5
2018-11-12T05:24:53.741Z,17.5
2018-11-12T05:25:55.145Z,17.5
2018-11-12T05:26:56.278Z,17.5
2018-11-12T05:27:57.454Z,17.5
2018-11-12T05:28:58.658Z,17.5
2018-11-12T05:29:59.822Z,17.5
2018-11-12T05:31:00.951Z,17.5
2018-11-12T05:32:02.079Z,17.5
2018-11-12T05:33:03.239Z,17.5
2018-11-12T05:34:04.547Z,17.4
2018-11-12T05:35:06.103Z,17.5
2018-11-12T05:36:07.310Z,17.5
2018-11-12T05:37:08.478Z,17.4
2018-11-12T05:38:09.812Z,17.3
2018-11-12T05:39:10.962Z,17.5
2018-11-12T05:40:12.106Z,17.5
2018-11-12T05:41:13.234Z,17.5
2018-11-12T05:42:14.399Z,17.5
2018-11-12T05:43:15.574Z,17.5
2018-11-12T05:44:16.767Z,17.5
2018-11-12T05:45:18.936Z,17.5
2018-11-12T05:46:20.178Z,17.5
2018-11-12T05:47:21.334Z,17.5
2018-11-12T05:48:27.345Z,17.5
2018-11-12T05:49:28.526Z,17.6
2018-11-12T05:50:29.726Z,17.7
2018-11-12T05:51:34.924Z,17.6
2018-11-12T05:52:36.021Z,17.6
2018-11-12T05:53:37.206Z,17.6
2018-11-12T05:54:38.392Z,17.5
2018-11-12T05:55:39.554Z,17.5
2018-11-12T05:56:40.837Z,17.5
2018-11-12T05:57:43.916Z,17.5
2018-11-12T05:58:47.777Z,17.5
2018-11-12T05:59:52.572Z,17.5
2018-11-12T06:00:53.801Z,17.5
2018-11-12T06:01:55.063Z,17.4
2018-11-12T06:02:56.710Z,17.3
2018-11-12T06:03:57.855Z,17.5
2018-11-12T06:05:03.180Z,17.5
2018-11-12T06:06:33.257Z,17.8
2018-11-12T06:07:39.205Z,17.9
2018-11-12T06:08:45.282Z,18
2018-11-12T06:09:47.910Z,18.1
2018-11-12T06:10:50.522Z,18.2
2018-11-12T06:11:52.306Z,18.1
2018-11-12T06:12:53.509Z,18.2
2018-11-12T06:13:58.372Z,18.2
2018-11-12T06:14:59.594Z,18.2
2018-11-12T06:16:03.578Z,18.3
2018-11-12T06:17:04.750Z,18.3
2018-11-12T06:18:05.976Z,18.3
2018-11-12T06:19:09.623Z,18.3
2018-11-12T06:20:10.831Z,18.3
2018-11-12T06:21:12.046Z,18.1
2018-11-12T06:22:13.211Z,18.1
2018-11-12T06:23:14.389Z,18.1
2018-11-12T06:24:21.556Z,18.2
2018-11-12T06:25:25.035Z,18.3
2018-11-12T06:26:26.293Z,18.3
2018-11-12T06:27:29.142Z,18.4
2018-11-12T06:28:30.413Z,18.4
2018-11-12T06:29:34.422Z,18.4
2018-11-12T06:30:35.780Z,18.4
2018-11-12T06:31:37.179Z,18.5
2018-11-12T06:32:38.377Z,18.4
2018-11-12T06:33:39.578Z,18.4
2018-11-12T06:34:40.734Z,18.4
2018-11-12T06:35:41.942Z,18.4
2018-11-12T06:36:43.502Z,18.4
2018-11-12T06:37:44.629Z,18.4
2018-11-12T06:38:45.783Z,18.4
2018-11-12T06:39:47.209Z,18.5
2018-11-12T06:40:48.389Z,18.5
2018-11-12T06:41:49.662Z,18.6
2018-11-12T06:42:51.116Z,18.6
2018-11-12T06:43:52.160Z,18.6
2018-11-12T06:44:53.382Z,18.6
2018-11-12T06:45:58.846Z,18.5
2018-11-12T06:47:02.963Z,18.5
2018-11-12T06:48:06.414Z,18.5
2018-11-12T06:49:07.718Z,18.6
2018-11-12T06:50:10.216Z,18.6
2018-11-12T06:51:11.727Z,18.6
2018-11-12T06:52:13.120Z,18.6
2018-11-12T06:53:14.382Z,18.6
2018-11-12T06:54:21.749Z,18.6
2018-11-12T06:55:22.914Z,18.6
2018-11-12T06:56:24.069Z,18.6
2018-11-12T06:57:28.437Z,18.5
2018-11-12T06:58:31.873Z,18.6
2018-11-12T06:59:33.074Z,18.6
2018-11-12T07:00:35.815Z,18.7
2018-11-12T07:01:39.674Z,18.6
2018-11-12T07:02:41.123Z,18.5
2018-11-12T07:03:42.295Z,18.5
2018-11-12T07:04:47.010Z,18.6
2018-11-12T07:05:48.403Z,18.7
2018-11-12T07:06:49.821Z,18.6
2018-11-12T07:07:53.697Z,18.8
2018-11-12T07:08:54.835Z,18.8
2018-11-12T07:09:58.770Z,18.6
2018-11-12T07:11:07.344Z,18.7
2018-11-12T07:12:10.106Z,18.7
2018-11-12T07:14:29.758Z,18.7
2018-11-12T07:15:33.742Z,18.7
2018-11-12T07:16:35.393Z,18.7
2018-11-12T07:17:36.731Z,18.7
2018-11-12T07:18:40.188Z,18.8
2018-11-12T07:19:41.334Z,18.7
2018-11-12T07:20:42.499Z,18.7
2018-11-12T07:21:43.700Z,18.8
2018-11-12T07:22:44.860Z,18.7
2018-11-12T07:23:46.049Z,18.9
2018-11-12T07:24:47.212Z,18.8
2018-11-12T07:25:48.396Z,18.7
2018-11-12T07:26:50.015Z,18.7
2018-11-12T07:27:51.212Z,18.6
2018-11-12T07:29:01.311Z,18.6
2018-11-12T07:30:04.202Z,18.8
2018-11-12T07:31:10.402Z,18.8
2018-11-12T07:32:11.599Z,18.7
2018-11-12T07:33:12.810Z,18.7
2018-11-12T07:34:14.006Z,18.8
2018-11-12T07:35:17.940Z,18.8
2018-11-12T07:36:19.421Z,18.9
2018-11-12T07:37:20.646Z,18.9
2018-11-12T07:38:21.813Z,18.9
2018-11-12T07:39:23.671Z,18.9
2018-11-12T07:40:24.848Z,19
2018-11-12T07:41:25.987Z,19
2018-11-12T07:42:30.198Z,19
2018-11-12T07:43:31.416Z,18.9
2018-11-12T07:44:32.642Z,18.9
2018-11-12T07:45:44.344Z,18.8
2018-11-12T07:46:49.787Z,18.9
2018-11-12T07:47:50.993Z,18.9
2018-11-12T07:48:52.295Z,18.8
2018-11-12T07:49:53.511Z,18.8
2018-11-12T07:50:54.875Z,18.9
2018-11-12T07:51:56.052Z,18.8
2018-11-12T07:52:57.195Z,18.8
2018-11-12T07:53:58.413Z,18.9
2018-11-12T07:54:59.643Z,18.9
2018-11-12T07:56:00.902Z,18.9
2018-11-12T07:57:05.452Z,19
2018-11-12T07:58:11.915Z,18.9
2018-11-12T07:59:13.353Z,18.9
2018-11-12T08:00:18.436Z,19
2018-11-12T08:01:19.825Z,19
2018-11-12T08:02:23.495Z,19
2018-11-12T08:03:27.755Z,19
2018-11-12T08:04:28.926Z,18.8
2018-11-12T08:05:30.372Z,19
2018-11-12T08:06:31.550Z,19.1
2018-11-12T08:07:36.191Z,18.9
2018-11-12T08:08:37.383Z,18.9
2018-11-12T08:09:41.573Z,19
2018-11-12T08:10:42.753Z,19
2018-11-12T08:11:46.827Z,18.9
2018-11-12T08:12:53.699Z,18.9
2018-11-12T08:13:57.034Z,18.9
2018-11-12T08:14:58.483Z,18.9
2018-11-12T08:15:59.820Z,19
2018-11-12T08:17:06.415Z,18.8
2018-11-12T08:18:14.996Z,19
2018-11-12T08:19:19.045Z,18.9
2018-11-12T08:20:22.766Z,18.8
2018-11-12T08:21:24.278Z,19
2018-11-12T08:22:28.623Z,19
2018-11-12T08:23:29.798Z,19
2018-11-12T08:24:31.050Z,19.1
2018-11-12T08:25:32.145Z,19.1
2018-11-12T08:26:33.482Z,19.1
2018-11-12T08:27:34.730Z,19.1
2018-11-12T08:28:37.165Z,19.1
2018-11-12T08:29:38.492Z,19.1
2018-11-12T08:30:39.863Z,19
2018-11-12T08:31:41.273Z,19.1
2018-11-12T08:32:42.512Z,19.1
2018-11-12T08:33:43.715Z,19.1
2018-11-12T08:34:45.115Z,19
2018-11-12T08:35:46.459Z,19.1
2018-11-12T08:36:50.496Z,19.1
2018-11-12T08:37:51.753Z,19.2
2018-11-12T08:38:56.036Z,19.1
2018-11-12T08:39:57.359Z,19.2
2018-11-12T08:40:58.436Z,19.2
2018-11-12T08:42:00.042Z,19.2
2018-11-12T08:43:07.486Z,19.1
2018-11-12T08:44:32.351Z,19.2
2018-11-12T08:45:35.836Z,19.1
2018-11-12T08:46:40.057Z,19.3
2018-11-12T08:47:41.527Z,19.3
2018-11-12T08:48:50.364Z,19.2
2018-11-12T08:49:55.693Z,19.2
2018-11-12T08:51:01.490Z,19.4
2018-11-12T08:52:07.748Z,19.4
2018-11-12T08:53:15.349Z,19.3
2018-11-12T08:54:16.808Z,19.4
2018-11-12T08:55:17.919Z,19.4
2018-11-12T08:56:19.087Z,19.4
2018-11-12T08:57:20.250Z,19.4
2018-11-12T08:58:21.521Z,19.4
2018-11-12T08:59:27.202Z,19.4
2018-11-12T09:00:28.407Z,19.4
2018-11-12T09:01:37.296Z,19.5
2018-11-12T09:02:38.777Z,19.5
2018-11-12T09:03:43.329Z,19.5
2018-11-12T09:04:47.342Z,19.6
2018-11-12T09:05:51.289Z,19.6
2018-11-12T09:06:52.445Z,19.6
2018-11-12T09:07:53.591Z,19.5
2018-11-12T09:08:54.778Z,19.5
2018-11-12T09:09:59.068Z,19.6
2018-11-12T09:11:00.311Z,19.6
2018-11-12T09:12:01.593Z,19.5
2018-11-12T09:13:03.214Z,19.5
2018-11-12T09:14:07.438Z,19.6
2018-11-12T09:15:10.256Z,19.6
2018-11-12T09:16:23.127Z,19.5
2018-11-12T09:17:29.327Z,19.6
2018-11-12T09:18:30.874Z,19.6
2018-11-12T09:19:32.326Z,19.7
2018-11-12T09:20:37.322Z,19.8
2018-11-12T09:21:44.505Z,19.8
2018-11-12T09:22:45.768Z,19.7
2018-11-12T09:23:46.885Z,19.7
2018-11-12T09:24:48.326Z,19.7
2018-11-12T09:25:49.528Z,19.8
2018-11-12T09:26:50.752Z,19.9
2018-11-12T09:27:57.429Z,19.8
2018-11-12T09:29:00.478Z,19.8
2018-11-12T09:30:01.684Z,19.8
2018-11-12T09:31:08.259Z,19.8
2018-11-12T09:32:07.748Z,19.8
2018-11-12T09:33:08.934Z,19.8
2018-11-12T09:34:10.090Z,19.8
2018-11-12T09:35:11.677Z,19.8
2018-11-12T09:36:14.152Z,19.9
2018-11-12T09:37:19.194Z,19.9
2018-11-12T09:39:23.358Z,19.9
2018-11-12T09:40:24.551Z,19.9
2018-11-12T09:41:37.951Z,19.9
2018-11-12T09:42:39.181Z,19.9
2018-11-12T09:43:41.099Z,19.9
2018-11-12T09:44:45.028Z,20
2018-11-12T09:45:46.257Z,20
2018-11-12T09:47:01.253Z,20
2018-11-12T09:48:02.454Z,20
2018-11-12T09:49:03.780Z,20
2018-11-12T09:50:08.394Z,20
2018-11-12T09:51:09.689Z,19.9
2018-11-12T09:52:10.834Z,20
2018-11-12T09:53:12.060Z,20.1
2018-11-12T09:54:13.300Z,20
2018-11-12T09:55:14.434Z,20
2018-11-12T09:56:17.698Z,19.9
2018-11-12T09:57:19.275Z,20
2018-11-12T09:58:21.852Z,20
2018-11-12T09:59:23.369Z,20
2018-11-12T10:00:24.674Z,20.1
2018-11-12T10:01:26.299Z,20.1
2018-11-12T10:02:28.340Z,20
2018-11-12T10:03:29.572Z,20.1
2018-11-12T10:04:34.491Z,20
2018-11-12T10:05:42.036Z,20.1
2018-11-12T10:06:43.784Z,20.1
2018-11-12T10:07:53.151Z,20.1
2018-11-12T10:08:54.120Z,20.1
2018-11-12T10:10:01.472Z,20.1
2018-11-12T10:11:02.756Z,20.1
2018-11-12T10:12:02.968Z,20.1
2018-11-12T10:13:04.179Z,20.1
2018-11-12T10:14:11.507Z,20.1
2018-11-12T10:15:14.189Z,20.1
2018-11-12T10:16:15.976Z,20.2
2018-11-12T10:17:17.958Z,20.2
2018-11-12T10:18:16.012Z,20.1
2018-11-12T10:19:17.174Z,20.1
2018-11-12T10:20:18.394Z,20.1
2018-11-12T10:21:24.661Z,20.2
2018-11-12T10:22:31.943Z,20.1
2018-11-12T10:23:33.530Z,20.2
2018-11-12T10:24:34.693Z,20.1
2018-11-12T10:25:35.846Z,20.1
2018-11-12T10:26:37.045Z,20.2
2018-11-12T10:27:40.818Z,20.2
2018-11-12T10:28:49.753Z,20.2
2018-11-12T10:29:53.821Z,20.2
2018-11-12T10:30:58.240Z,20.2
2018-11-12T10:32:06.740Z,20.3
2018-11-12T10:33:08.094Z,20.3
2018-11-12T10:34:09.365Z,20.1
2018-11-12T10:35:10.508Z,20.2
2018-11-12T10:36:11.786Z,20.2
2018-11-12T10:37:13.062Z,20.3
2018-11-12T10:38:14.410Z,20.2
2018-11-12T10:39:15.963Z,20.3
2018-11-12T10:40:17.409Z,20.3
2018-11-12T10:41:25.499Z,20.3
2018-11-12T10:42:29.206Z,20.3
2018-11-12T10:43:30.454Z,20.3
2018-11-12T10:44:31.696Z,20.4
2018-11-12T10:45:32.908Z,20.4
2018-11-12T10:46:34.144Z,20.4
2018-11-12T10:47:35.382Z,20.4
2018-11-12T10:48:41.356Z,20.4
2018-11-12T10:49:44.217Z,20.4
2018-11-12T10:50:45.445Z,20.4
2018-11-12T10:51:46.687Z,20.4
2018-11-12T10:52:53.120Z,20.3
2018-11-12T10:53:59.451Z,20.3
2018-11-12T10:55:05.368Z,20.3
2018-11-12T10:56:05.602Z,20.3
2018-11-12T10:57:07.767Z,20.3
2018-11-12T10:59:29.049Z,20.5
2018-11-12T11:00:30.438Z,20.5
2018-11-12T11:01:31.841Z,20.5
2018-11-12T11:02:44.431Z,20.5
2018-11-12T11:03:48.747Z,20.5
2018-11-12T11:04:57.356Z,20.5
2018-11-12T11:05:58.540Z,20.5
2018-11-12T11:06:59.718Z,20.5
2018-11-12T11:08:01.238Z,20.5
2018-11-12T11:09:02.450Z,20.5
2018-11-12T11:10:03.901Z,20.5
2018-11-12T11:11:05.116Z,20.5
2018-11-12T11:12:09.017Z,20.5
2018-11-12T11:13:10.162Z,20.5
2018-11-12T11:14:11.638Z,20.5
2018-11-12T11:15:13.043Z,20.5
2018-11-12T11:16:16.558Z,20.4
2018-11-12T11:17:17.742Z,20.5
2018-11-12T11:18:21.581Z,20.4
2018-11-12T11:19:24.811Z,20.5
2018-11-12T11:20:26.068Z,20.5
2018-11-12T11:21:29.787Z,20.5
2018-11-12T11:22:41.962Z,20.5
2018-11-12T11:23:43.288Z,20.5
2018-11-12T11:24:44.484Z,20.5
2018-11-12T11:25:46.040Z,20.5
2018-11-12T11:26:47.246Z,20.5
2018-11-12T11:27:48.346Z,20.5
2018-11-12T11:28:55.519Z,20.5
2018-11-12T11:29:56.708Z,20.4
2018-11-12T11:31:00.052Z,20.5
2018-11-12T11:32:02.911Z,20.5
2018-11-12T11:33:07.662Z,20.5
2018-11-12T11:34:08.977Z,20.6
2018-11-12T11:35:10.165Z,20.5
2018-11-12T11:36:11.362Z,20.5
2018-11-12T11:37:12.536Z,20.6
2018-11-12T11:38:13.818Z,20.5
2018-11-12T11:39:15.000Z,20.6
2018-11-12T11:40:16.283Z,20.6
2018-11-12T11:41:18.560Z,20.6
2018-11-12T11:42:24.828Z,20.6
2018-11-12T11:43:26.044Z,20.5
2018-11-12T11:44:27.556Z,20.5
2018-11-12T11:45:31.302Z,20.6
2018-11-12T11:47:45.861Z,20.5
2018-11-12T11:48:47.364Z,20.5
2018-11-12T11:49:51.462Z,20.6
2018-11-12T11:51:01.652Z,20.6
2018-11-12T11:52:02.857Z,20.6
2018-11-12T11:53:06.757Z,20.7
2018-11-12T11:54:08.025Z,20.7
2018-11-12T11:55:15.225Z,20.8
2018-11-12T11:56:17.902Z,20.7
2018-11-12T11:57:24.306Z,20.7
2018-11-12T11:58:28.003Z,20.6
2018-11-12T11:59:31.344Z,20.8
2018-11-12T12:00:41.671Z,20.8
2018-11-12T12:01:47.578Z,20.8
2018-11-12T12:02:48.813Z,20.8
2018-11-12T12:03:56.006Z,20.8
2018-11-12T12:04:57.159Z,20.7
2018-11-12T12:05:58.475Z,20.8
2018-11-12T12:06:59.921Z,20.7
2018-11-12T12:08:01.238Z,20.9
2018-11-12T12:09:06.898Z,20.9
2018-11-12T12:10:10.282Z,20.9
2018-11-12T12:11:25.324Z,20.9
2018-11-12T12:12:26.731Z,20.9
2018-11-12T12:13:28.468Z,20.9
2018-11-12T12:14:33.865Z,20.9
2018-11-12T12:15:37.602Z,20.9
2018-11-12T12:16:40.214Z,20.9
2018-11-12T12:17:44.395Z,20.8
2018-11-12T12:18:48.440Z,20.8
2018-11-12T12:19:57.024Z,20.7
2018-11-12T12:20:58.268Z,20.9
2018-11-12T12:22:02.901Z,20.9
2018-11-12T12:23:06.364Z,20.9
2018-11-12T12:24:08.942Z,21
2018-11-12T12:25:10.458Z,21
2018-11-12T12:26:12.022Z,21
2018-11-12T12:27:20.324Z,21
2018-11-12T12:28:21.499Z,21.1
2018-11-12T12:29:22.695Z,21.1
2018-11-12T12:30:23.852Z,21.1
2018-11-12T12:31:26.946Z,21.1
2018-11-12T12:32:28.359Z,21
2018-11-12T12:33:44.828Z,21.1
2018-11-12T12:34:53.110Z,21.1
2018-11-12T12:35:56.839Z,21.1
2018-11-12T12:37:03.926Z,21.2
2018-11-12T12:38:08.330Z,21.1
2018-11-12T12:39:09.790Z,21.2
2018-11-12T12:40:13.377Z,21.2
2018-11-12T12:41:20.675Z,21.2
2018-11-12T12:42:23.210Z,21.1
2018-11-12T12:43:24.361Z,21.2
2018-11-12T12:44:25.585Z,21.2
2018-11-12T12:45:26.822Z,21.2
2018-11-12T12:46:31.798Z,21.1
2018-11-12T12:47:35.865Z,21.2
2018-11-12T12:48:37.079Z,21.2
2018-11-12T12:49:38.379Z,21.3
2018-11-12T12:50:39.563Z,21.3
2018-11-12T12:51:40.742Z,21.3
2018-11-12T12:52:43.385Z,21.3
2018-11-12T12:53:44.774Z,21.3
2018-11-12T12:54:46.224Z,21.4
2018-11-12T12:55:47.655Z,21.2
2018-11-12T12:56:51.820Z,21.3
2018-11-12T12:57:56.810Z,21.3
2018-11-12T12:59:00.311Z,21.3
2018-11-12T13:00:01.644Z,21.3
2018-11-12T13:01:02.830Z,21.3
2018-11-12T13:02:06.867Z,21.1
2018-11-12T13:03:09.605Z,21.2
2018-11-12T13:04:10.741Z,21.2
2018-11-12T13:05:11.998Z,21.3
2018-11-12T13:06:13.243Z,21.4
2018-11-12T13:07:14.435Z,21.4
2018-11-12T13:08:16.932Z,21.3
2018-11-12T13:09:21.805Z,21.4
2018-11-12T13:10:25.761Z,21.3
2018-11-12T13:11:49.226Z,21.3
2018-11-12T13:12:53.231Z,21.2
2018-11-12T13:13:55.448Z,21.3
2018-11-12T13:14:57.347Z,21.3
2018-11-12T13:15:58.599Z,21.3
2018-11-12T13:17:02.832Z,21.3
2018-11-12T13:18:12.299Z,21.3
2018-11-12T13:20:34.309Z,21.3
2018-11-12T13:21:35.543Z,21.2
2018-11-12T13:22:36.739Z,21.3
2018-11-12T13:23:37.907Z,21.3
2018-11-12T13:24:39.102Z,21.2
2018-11-12T13:25:40.406Z,21.3
2018-11-12T13:26:42.068Z,21.3
2018-11-12T13:27:43.417Z,21.3
2018-11-12T13:29:00.835Z,21.3
2018-11-12T13:30:04.591Z,21.3
2018-11-12T13:31:08.419Z,21.3
2018-11-12T13:32:09.634Z,21.4
2018-11-12T13:33:14.536Z,21.3
2018-11-12T13:34:17.836Z,21.3
2018-11-12T13:35:20.921Z,21.3
2018-11-12T13:36:23.315Z,21.3
2018-11-12T13:37:25.904Z,21.3
2018-11-12T13:38:27.138Z,21.3
2018-11-12T13:39:28.442Z,21.3
2018-11-12T13:40:29.575Z,21.3
2018-11-12T13:41:33.690Z,21.3
2018-11-12T13:42:37.655Z,21.3
2018-11-12T13:43:39.927Z,21.3
2018-11-12T13:44:43.192Z,21.3
2018-11-12T13:45:44.423Z,21.3
2018-11-12T13:46:45.626Z,21.3
2018-11-12T13:47:47.007Z,21.3
2018-11-12T13:48:50.487Z,21.3
2018-11-12T13:49:51.758Z,21.2
2018-11-12T13:50:52.988Z,21.3
2018-11-12T13:51:54.360Z,21.1
2018-11-12T13:52:55.595Z,21.4
2018-11-12T13:53:56.877Z,21.4
2018-11-12T13:54:58.087Z,21.3
2018-11-12T13:55:59.248Z,21.4
2018-11-12T13:57:09.430Z,21.4
2018-11-12T13:58:16.544Z,21.4
2018-11-12T13:59:17.795Z,21.3
2018-11-12T14:00:21.778Z,21.4
2018-11-12T14:01:22.954Z,21.4